Time;durP1;ratioP1;P1;durP2;ratioP2;P2;SDS_P1;SDS_P2;PMS_P1;PMS_P2;Temp;Humidity;BMP_temperature;BMP_pressure;BME280_temperature;BME280_humidity;BME280_pressure;Samples;Min_cycle;Max_cycle;Signal;HPM_P1;HPM_P2
2022/06/06 00:00:15;;;;;;;58.43;30.03;;;;;;;14.92;100.00;100656.56;681522;28;1676;-46
2022/06/06 00:00:38;;;;;;;60.83;31.08;;;;;;;14.98;100.00;100643.25;682296;28;1274;-47
2022/06/06 00:00:59;;;;;;;58.22;30.23;;;;;;;15.02;100.00;100646.66;682180;28;1349;-46
2022/06/06 00:01:21;;;;;;;52.33;29.05;;;;;;;14.98;100.00;100645.91;682212;28;4566;-46
2022/06/06 00:01:42;;;;;;;51.17;28.75;;;;;;;14.97;100.00;100651.19;681814;28;1264;-47
2022/06/06 00:02:03;;;;;;;52.83;28.92;;;;;;;15.02;100.00;100641.41;682245;28;1532;-45
2022/06/06 00:02:28;;;;;;;50.55;27.67;;;;;;;14.96;100.00;100642.41;682380;28;1347;-46
2022/06/06 00:02:49;;;;;;;56.08;28.25;;;;;;;15.03;100.00;100637.88;682011;28;1078;-48
2022/06/06 00:03:10;;;;;;;53.13;28.80;;;;;;;15.02;100.00;100641.41;681989;28;1366;-47
2022/06/06 00:03:31;;;;;;;50.17;28.65;;;;;;;15.05;100.00;100637.84;682940;28;1445;-46
2022/06/06 00:03:51;;;;;;;51.73;28.93;;;;;;;15.10;100.00;100643.88;683886;28;1047;-47
2022/06/06 00:04:12;;;;;;;53.97;28.20;;;;;;;15.08;100.00;100643.06;682360;28;1631;-47
2022/06/06 00:04:34;;;;;;;51.05;28.60;;;;;;;15.05;100.00;100651.00;684607;28;4530;-47
2022/06/06 00:04:56;;;;;;;52.53;29.00;;;;;;;15.02;100.00;100645.81;684407;28;871;-47
2022/06/06 00:05:17;;;;;;;49.65;26.85;;;;;;;15.00;100.00;100652.91;684203;28;1332;-46
2022/06/06 00:05:41;;;;;;;48.38;26.85;;;;;;;15.03;100.00;100645.78;683809;28;1402;-46
2022/06/06 00:06:01;;;;;;;46.95;26.48;;;;;;;14.97;100.00;100648.56;684393;28;1128;-47
2022/06/06 00:06:22;;;;;;;46.45;27.30;;;;;;;14.93;100.00;100646.91;683535;28;1131;-47
2022/06/06 00:06:43;;;;;;;46.93;26.53;;;;;;;14.93;100.00;100647.75;684238;28;1326;-45
2022/06/06 00:07:04;;;;;;;45.58;26.13;;;;;;;14.91;100.00;100646.06;686555;28;1458;-48
2022/06/06 00:07:25;;;;;;;45.75;25.98;;;;;;;14.89;100.00;100645.25;681314;28;4571;-46
2022/06/06 00:07:46;;;;;;;48.10;27.15;;;;;;;14.88;100.00;100649.63;681908;28;1181;-47
2022/06/06 00:08:06;;;;;;;47.67;26.83;;;;;;;14.86;100.00;100647.97;681511;28;1343;-47
2022/06/06 00:08:27;;;;;;;49.13;27.05;;;;;;;14.81;100.00;100648.03;682444;28;1125;-46
2022/06/06 00:08:48;;;;;;;44.87;26.40;;;;;;;14.83;100.00;100646.25;682056;28;899;-46
2022/06/06 00:09:13;;;;;;;44.65;25.50;;;;;;;14.89;100.00;100645.25;682812;28;1149;-47
2022/06/06 00:09:34;;;;;;;42.25;24.60;;;;;;;14.86;100.00;100648.81;683028;28;1138;-47
2022/06/06 00:09:54;;;;;;;39.28;24.25;;;;;;;14.86;100.00;100648.81;682620;28;1217;-47
2022/06/06 00:10:15;;;;;;;42.37;25.00;;;;;;;14.85;100.00;100644.44;682366;28;1194;-46
2022/06/06 00:10:35;;;;;;;43.13;25.40;;;;;;;14.86;100.00;100645.31;681351;28;4278;-47
2022/06/06 00:10:58;;;;;;;44.07;25.17;;;;;;;14.87;100.00;100645.28;682246;28;1251;-47
2022/06/06 00:11:19;;;;;;;47.55;25.45;;;;;;;14.86;100.00;100642.69;682560;28;1088;-46
2022/06/06 00:11:40;;;;;;;40.27;23.90;;;;;;;14.82;100.00;100644.53;681804;28;1401;-46
2022/06/06 00:12:03;;;;;;;37.95;23.17;;;;;;;14.81;100.00;100642.78;681950;28;2336;-46
2022/06/06 00:12:24;;;;;;;36.97;23.75;;;;;;;14.84;100.00;100647.09;683057;28;1128;-47
2022/06/06 00:12:45;;;;;;;37.17;22.98;;;;;;;14.81;100.00;100642.78;683112;28;960;-49
2022/06/06 00:13:07;;;;;;;35.90;22.10;;;;;;;14.81;100.00;100643.66;682035;28;1335;-47
2022/06/06 00:13:27;;;;;;;37.55;22.48;;;;;;;14.81;100.00;100634.88;682608;28;4370;-47
2022/06/06 00:13:48;;;;;;;36.78;22.38;;;;;;;14.77;100.00;100639.38;680305;28;1803;-49
2022/06/06 00:14:10;;;;;;;35.30;22.37;;;;;;;14.77;100.00;100649.91;682089;28;1408;-46
2022/06/06 00:14:31;;;;;;;36.88;23.25;;;;;;;14.74;100.00;100638.56;681193;28;1122;-47
2022/06/06 00:14:51;;;;;;;37.70;22.30;;;;;;;14.73;100.00;100655.25;682225;28;1082;-46
2022/06/06 00:15:14;;;;;;;39.00;22.50;;;;;;;14.66;100.00;100643.97;681555;28;1054;-47
2022/06/06 00:15:35;;;;;;;41.28;23.08;;;;;;;14.64;100.00;100643.16;682133;28;1367;-47
2022/06/06 00:15:55;;;;;;;37.78;23.05;;;;;;;14.69;100.00;100645.69;682587;28;1015;-47
2022/06/06 00:16:15;;;;;;;36.85;22.25;;;;;;;14.73;100.00;100645.59;681395;28;960;-46
2022/06/06 00:16:36;;;;;;;36.43;22.03;;;;;;;14.71;100.00;100647.38;681331;28;4322;-48
2022/06/06 00:16:57;;;;;;;36.47;21.90;;;;;;;14.69;100.00;100643.94;682748;28;1093;-46
2022/06/06 00:17:17;;;;;;;35.60;22.90;;;;;;;14.70;100.00;100636.91;681916;28;1345;-46
2022/06/06 00:17:38;;;;;;;36.47;22.27;;;;;;;14.73;100.00;100648.22;680130;28;907;-46
2022/06/06 00:17:58;;;;;;;36.10;22.15;;;;;;;14.71;100.00;100647.38;681286;28;1094;-47
2022/06/06 00:18:19;;;;;;;37.30;21.90;;;;;;;14.72;100.00;100645.63;681579;28;1453;-46
2022/06/06 00:18:39;;;;;;;35.50;21.63;;;;;;;14.68;100.00;100642.19;681095;28;1430;-46
2022/06/06 00:18:59;;;;;;;37.10;22.63;;;;;;;14.63;100.00;100644.94;682107;28;1252;-46
2022/06/06 00:19:20;;;;;;;35.83;22.20;;;;;;;14.60;100.00;100650.22;681533;28;4543;-46
2022/06/06 00:19:41;;;;;;;35.70;22.42;;;;;;;14.59;100.00;100643.25;682027;28;1093;-47
2022/06/06 00:20:02;;;;;;;38.33;22.52;;;;;;;14.57;100.00;100646.81;681753;28;1142;-46
2022/06/06 00:20:23;;;;;;;40.05;22.75;;;;;;;14.55;100.00;100645.94;683417;28;1367;-46
2022/06/06 00:20:43;;;;;;;39.07;21.87;;;;;;;14.55;100.00;100643.31;679246;28;1376;-46
2022/06/06 00:21:07;;;;;;;38.90;22.98;;;;;;;14.56;100.00;100645.06;678876;29;1334;-47
2022/06/06 00:21:28;;;;;;;40.55;23.40;;;;;;;14.58;100.00;100652.03;679867;29;1600;-46
2022/06/06 00:21:48;;;;;;;40.88;23.65;;;;;;;14.53;100.00;100648.63;680091;28;1336;-47
2022/06/06 00:22:09;;;;;;;38.00;23.00;;;;;;;14.50;100.00;100640.78;679824;28;962;-47
2022/06/06 00:22:29;;;;;;;35.90;22.10;;;;;;;14.46;100.00;100647.03;681159;28;4690;-46
2022/06/06 00:22:50;;;;;;;36.63;21.58;;;;;;;14.46;100.00;100647.88;686297;28;951;-47
2022/06/06 00:23:10;;;;;;;38.80;22.57;;;;;;;14.55;100.00;100652.09;684890;28;1235;-46
2022/06/06 00:23:31;;;;;;;37.88;23.25;;;;;;;14.58;100.00;100641.50;682553;28;1252;-46
2022/06/06 00:23:52;;;;;;;38.30;22.73;;;;;;;14.55;100.00;100641.56;683499;28;932;-46
2022/06/06 00:24:15;;;;;;;37.75;22.35;;;;;;;14.50;100.00;100643.44;680129;29;1109;-46
2022/06/06 00:24:36;;;;;;;39.90;23.00;;;;;;;14.47;100.00;100646.13;679044;29;1081;-47
2022/06/06 00:24:56;;;;;;;39.30;23.27;;;;;;;14.53;100.00;100642.50;679407;28;1148;-46
2022/06/06 00:25:17;;;;;;;38.67;22.57;;;;;;;14.57;100.00;100644.16;679744;29;1136;-46
2022/06/06 00:25:37;;;;;;;35.90;22.15;;;;;;;14.54;100.00;100645.09;680414;28;4430;-46
2022/06/06 00:25:58;;;;;;;34.73;22.07;;;;;;;14.57;100.00;100645.03;682883;28;1085;-46
2022/06/06 00:26:19;;;;;;;38.88;22.42;;;;;;;14.55;100.00;100643.31;680860;28;986;-47
2022/06/06 00:26:40;;;;;;;39.27;22.73;;;;;;;14.55;100.00;100645.94;682037;28;1182;-46
2022/06/06 00:27:01;;;;;;;40.30;23.23;;;;;;;14.58;100.00;100646.75;683040;28;1218;-46
2022/06/06 00:27:21;;;;;;;37.38;22.95;;;;;;;14.56;100.00;100642.44;680008;29;1556;-46
2022/06/06 00:27:42;;;;;;;37.93;22.60;;;;;;;14.51;100.00;100644.28;679176;28;1137;-46
2022/06/06 00:28:02;;;;;;;36.78;22.38;;;;;;;14.51;100.00;100645.16;679773;29;1466;-48
2022/06/06 00:28:23;;;;;;;37.50;22.40;;;;;;;14.48;100.00;100645.22;678524;29;4728;-47
2022/06/06 00:28:44;;;;;;;38.15;22.65;;;;;;;14.48;100.00;100645.22;680023;28;999;-45
2022/06/06 00:29:06;;;;;;;39.47;23.17;;;;;;;14.47;100.00;100651.38;681508;28;1097;-46
2022/06/06 00:29:27;;;;;;;39.55;23.45;;;;;;;14.51;100.00;100646.91;684932;28;1211;-46
2022/06/06 00:29:49;;;;;;;40.30;23.75;;;;;;;14.51;100.00;100652.19;684411;28;1206;-47
2022/06/06 00:30:10;;;;;;;40.13;23.83;;;;;;;14.48;100.00;100645.22;682535;28;1322;-47
2022/06/06 00:30:30;;;;;;;39.00;23.05;;;;;;;14.46;100.00;100647.03;682385;28;1076;-47
2022/06/06 00:30:57;;;;;;;40.17;23.35;;;;;;;14.42;100.00;100640.94;682450;28;1226;-46
2022/06/06 00:34:48;;;;;;;42.45;23.13;;;;;;;14.39;100.00;100645.44;677885;28;5000;-46
2022/06/06 00:34:53;;;;;;;39.97;23.07;;;;;;;14.39;100.00;100643.66;680891;28;1156;-46
2022/06/06 00:35:09;;;;;;;43.15;23.50;;;;;;;14.41;100.00;100641.88;680877;28;1021;-46
2022/06/06 00:35:29;;;;;;;42.72;23.67;;;;;;;14.38;100.00;100643.69;682996;28;942;-45
2022/06/06 00:35:50;;;;;;;42.37;24.17;;;;;;;14.37;100.00;100644.56;682279;28;1012;-46
2022/06/06 00:36:10;;;;;;;41.33;23.95;;;;;;;14.30;100.00;100642.09;683093;28;856;-48
2022/06/06 00:36:33;;;;;;;43.70;23.47;;;;;;;14.35;100.00;100641.13;682412;28;1910;-47
2022/06/06 00:36:53;;;;;;;43.92;23.40;;;;;;;14.31;100.00;100640.31;681980;28;1097;-47
2022/06/06 00:37:23;;;;;;;42.80;23.37;;;;;;;14.30;100.00;100643.81;682466;28;1301;-46
2022/06/06 00:37:43;;;;;;;43.72;24.10;;;;;;;14.27;100.00;100639.53;680677;28;4726;-46
2022/06/06 00:38:04;;;;;;;45.60;24.27;;;;;;;14.29;100.00;100640.34;681966;28;936;-47
2022/06/06 00:38:25;;;;;;;42.20;23.90;;;;;;;14.37;100.00;100636.69;682601;28;896;-46
2022/06/06 00:38:45;;;;;;;41.63;24.05;;;;;;;14.43;100.00;100639.19;682815;28;1047;-46
2022/06/06 00:39:07;;;;;;;41.22;24.02;;;;;;;14.42;100.00;100637.47;681978;28;768;-46
2022/06/06 00:39:28;;;;;;;41.08;23.13;;;;;;;14.39;100.00;100640.16;681309;28;856;-46
2022/06/06 00:39:49;;;;;;;38.23;22.93;;;;;;;14.38;100.00;100641.06;682362;28;1025;-46
2022/06/06 00:40:11;;;;;;;43.38;23.48;;;;;;;14.36;100.00;100643.72;682050;28;1046;-47
2022/06/06 00:40:31;;;;;;;43.05;23.90;;;;;;;14.39;100.00;100640.16;680994;28;4634;-46
2022/06/06 00:40:52;;;;;;;43.57;24.30;;;;;;;14.40;100.00;100641.88;681647;28;881;-46
2022/06/06 00:41:12;;;;;;;43.13;23.88;;;;;;;14.39;100.00;100641.03;681707;28;1221;-47
2022/06/06 00:41:41;;;;;;;42.47;24.40;;;;;;;14.41;100.00;100633.09;682192;28;1349;-47
2022/06/06 00:42:15;;;;;;;45.10;24.75;;;;;;;14.36;100.00;100638.47;681547;28;1073;-45
2022/06/06 00:42:38;;;;;;;43.45;24.40;;;;;;;14.34;100.00;100634.13;682073;28;1349;-48
2022/06/06 00:43:00;;;;;;;43.72;23.63;;;;;;;14.31;100.00;100638.53;681871;28;1155;-47
2022/06/06 00:43:20;;;;;;;43.03;23.90;;;;;;;14.28;100.00;100637.75;681403;28;4342;-48
2022/06/06 00:43:41;;;;;;;46.67;24.33;;;;;;;14.25;100.00;100637.81;679893;28;1229;-46
2022/06/06 00:44:03;;;;;;;44.15;23.58;;;;;;;14.27;100.00;100634.28;679760;29;1212;-46
2022/06/06 00:44:32;;;;;;;43.30;23.20;;;;;;;14.25;100.00;100636.03;680208;29;837;-47
2022/06/06 00:45:21;;;;;;;43.85;23.63;;;;;;;14.23;100.00;100637.84;682722;28;953;-46
2022/06/06 00:45:44;;;;;;;42.47;24.02;;;;;;;14.27;100.00;100634.28;684507;28;990;-48
2022/06/06 00:46:08;;;;;;;43.15;23.90;;;;;;;14.25;100.00;100638.69;683978;28;1175;-46
2022/06/06 00:46:30;;;;;;;44.88;24.20;;;;;;;14.23;100.00;100634.34;681900;28;4528;-46
2022/06/06 00:47:16;;;;;;;46.33;23.92;;;;;;;14.22;100.00;100633.50;680611;28;1115;-47
2022/06/06 00:47:39;;;;;;;44.85;23.67;;;;;;;14.20;100.00;100640.53;682012;28;1056;-46
2022/06/06 00:48:17;;;;;;;51.33;24.42;;;;;;;14.17;100.00;100629.22;681326;28;867;-47
2022/06/06 00:48:40;;;;;;;50.50;25.48;;;;;;;14.17;100.00;100647.63;682264;28;891;-48
2022/06/06 00:49:02;;;;;;;48.42;25.33;;;;;;;14.15;100.00;100637.16;683507;28;1645;-47
2022/06/06 00:49:29;;;;;;;46.45;24.63;;;;;;;14.16;100.00;100628.34;681018;28;4920;-47
2022/06/06 00:49:59;;;;;;;46.03;24.40;;;;;;;14.17;100.00;100632.72;681023;28;997;-46
2022/06/06 00:50:47;;;;;;;41.90;23.23;;;;;;;14.17;100.00;100631.84;683788;28;1108;-46
2022/06/06 00:51:15;;;;;;;44.83;24.35;;;;;;;14.18;100.00;100630.94;680288;28;1247;-48
2022/06/06 00:51:35;;;;;;;47.80;24.77;;;;;;;14.17;100.00;100634.47;681689;28;936;-46
2022/06/06 00:51:56;;;;;;;47.57;24.83;;;;;;;14.16;100.00;100641.47;682049;28;1051;-46
2022/06/06 00:52:34;;;;;;;48.33;23.98;;;;;;;14.17;100.00;100631.84;682311;28;956;-46
2022/06/06 00:52:55;;;;;;;50.38;25.17;;;;;;;14.29;100.00;100634.22;678132;28;5470;-46
2022/06/06 00:53:20;;;;;;;46.25;24.05;;;;;;;14.33;100.00;100635.00;680111;29;1122;-46
2022/06/06 00:53:46;;;;;;;43.53;23.75;;;;;;;14.27;100.00;100626.38;681720;28;1287;-47
2022/06/06 00:54:07;;;;;;;43.30;23.95;;;;;;;14.30;100.00;100626.31;681979;28;1034;-46
2022/06/06 00:54:28;;;;;;;42.90;24.17;;;;;;;14.28;100.00;100628.09;681394;28;4673;-48
2022/06/06 00:54:52;;;;;;;45.15;23.77;;;;;;;14.29;100.00;100629.81;681707;28;1577;-46
2022/06/06 00:55:17;;;;;;;38.38;23.02;;;;;;;14.29;100.00;100628.97;681340;28;1131;-48
2022/06/06 00:55:43;;;;;;;46.78;24.05;;;;;;;14.28;100.00;100621.97;680423;28;4209;-46
2022/06/06 00:56:14;;;;;;;47.08;24.17;;;;;;;14.24;100.00;100626.41;681037;28;979;-46
2022/06/06 00:56:51;;;;;;;46.75;23.75;;;;;;;14.23;100.00;100627.34;682274;28;1985;-46
2022/06/06 00:57:18;;;;;;;48.38;24.45;;;;;;;14.23;100.00;100624.72;682968;28;1123;-46
2022/06/06 00:57:45;;;;;;;43.53;24.30;;;;;;;14.21;100.00;100623.00;681828;28;1247;-47
2022/06/06 00:58:14;;;;;;;45.30;23.83;;;;;;;14.19;100.00;100627.41;680044;28;1117;-47
2022/06/06 00:58:36;;;;;;;47.63;25.02;;;;;;;14.19;100.00;100624.78;681230;28;4305;-48
2022/06/06 00:59:03;;;;;;;49.67;25.50;;;;;;;14.17;100.00;100632.72;681132;28;1094;-46
2022/06/06 00:59:29;;;;;;;58.05;24.55;;;;;;;14.16;100.00;100628.34;681345;28;1446;-46
2022/06/06 00:59:49;;;;;;;62.45;26.50;;;;;;;14.14;100.00;100628.38;681086;28;1275;-46
2022/06/06 01:00:14;;;;;;;54.43;26.20;;;;;;;14.12;100.00;100632.81;681443;28;1077;-46
2022/06/06 01:00:37;;;;;;;51.85;26.75;;;;;;;14.13;100.00;100633.66;681645;28;1272;-46
2022/06/06 01:00:58;;;;;;;50.08;25.83;;;;;;;14.13;100.00;100634.53;681418;28;1147;-46
2022/06/06 01:01:20;;;;;;;49.63;25.73;;;;;;;14.13;100.00;100629.25;681098;28;4738;-46
2022/06/06 01:01:41;;;;;;;48.60;25.88;;;;;;;14.12;100.00;100637.19;681254;28;1640;-47
2022/06/06 01:02:02;;;;;;;51.47;25.77;;;;;;;14.12;100.00;100635.44;680955;28;860;-46
2022/06/06 01:02:23;;;;;;;50.15;25.20;;;;;;;14.12;100.00;100627.56;681400;28;1206;-47
2022/06/06 01:02:45;;;;;;;52.87;25.47;;;;;;;14.12;100.00;100632.81;682057;28;904;-46
2022/06/06 01:03:09;;;;;;;50.47;25.05;;;;;;;14.20;100.00;100632.63;683899;28;1400;-46
2022/06/06 01:03:30;;;;;;;48.33;25.38;;;;;;;14.24;100.00;100633.44;683652;28;819;-45
2022/06/06 01:03:50;;;;;;;45.73;24.67;;;;;;;14.25;100.00;100643.94;679462;29;1211;-48
2022/06/06 01:04:15;;;;;;;46.33;24.85;;;;;;;14.24;100.00;100638.72;679370;29;1184;-46
2022/06/06 01:04:35;;;;;;;49.25;24.60;;;;;;;14.23;100.00;100639.59;679304;28;4520;-50
2022/06/06 01:04:56;;;;;;;47.60;24.92;;;;;;;14.21;100.00;100639.63;679358;28;1203;-47
2022/06/06 01:05:19;;;;;;;51.20;25.13;;;;;;;14.18;100.00;100637.06;678842;29;1192;-45
2022/06/06 01:05:42;;;;;;;50.85;25.15;;;;;;;14.15;100.00;100639.78;680989;28;884;-46
2022/06/06 01:06:04;;;;;;;49.42;25.65;;;;;;;14.16;100.00;100644.09;681899;28;1555;-47
2022/06/06 01:06:29;;;;;;;48.63;25.02;;;;;;;14.21;100.00;100631.75;681968;28;1445;-46
2022/06/06 01:06:50;;;;;;;50.13;24.35;;;;;;;14.20;100.00;100640.53;678066;28;1347;-46
2022/06/06 01:07:12;;;;;;;46.63;23.77;;;;;;;14.20;100.00;100631.78;678438;29;841;-46
2022/06/06 01:07:33;;;;;;;42.92;23.48;;;;;;;14.19;100.00;100636.19;678922;28;4461;-47
2022/06/06 01:07:54;;;;;;;46.50;23.98;;;;;;;14.19;100.00;100632.66;679045;28;1037;-46
2022/06/06 01:08:17;;;;;;;45.70;24.80;;;;;;;14.18;100.00;100644.97;681567;28;1085;-47
2022/06/06 01:08:39;;;;;;;48.88;25.30;;;;;;;14.18;100.00;100637.06;682199;28;1119;-46
2022/06/06 01:09:00;;;;;;;49.78;25.00;;;;;;;14.18;100.00;100637.06;682548;28;1045;-47
2022/06/06 01:09:23;;;;;;;49.65;25.05;;;;;;;14.15;100.00;100629.25;682179;28;1360;-46
2022/06/06 01:09:44;;;;;;;51.53;26.08;;;;;;;14.15;100.00;100642.41;682083;28;1271;-46
2022/06/06 01:10:05;;;;;;;51.23;26.03;;;;;;;14.15;100.00;100647.66;680684;28;1174;-47
2022/06/06 01:10:25;;;;;;;50.40;25.70;;;;;;;14.14;100.00;100641.50;681382;28;4466;-47
2022/06/06 01:10:46;;;;;;;49.72;25.75;;;;;;;14.14;100.00;100640.66;682784;28;1225;-46
2022/06/06 01:11:07;;;;;;;49.28;25.17;;;;;;;14.14;100.00;100640.66;682522;28;1220;-46
2022/06/06 01:11:27;;;;;;;51.13;25.57;;;;;;;14.15;100.00;100645.03;682188;28;1209;-45
2022/06/06 01:12:02;;;;;;;47.53;24.88;;;;;;;14.14;100.00;100638.03;682566;28;1045;-46
2022/06/06 01:12:23;;;;;;;50.47;24.73;;;;;;;14.15;100.00;100647.66;682142;28;1369;-46
2022/06/06 01:12:47;;;;;;;51.03;25.67;;;;;;;14.13;100.00;100641.56;683106;28;975;-46
2022/06/06 01:13:11;;;;;;;54.92;27.20;;;;;;;14.14;100.00;100638.03;680509;28;1066;-46
2022/06/06 01:13:33;;;;;;;53.30;26.58;;;;;;;14.19;100.00;100628.31;681477;28;4535;-46
2022/06/06 01:13:56;;;;;;;48.15;24.58;;;;;;;14.20;100.00;100630.00;679837;28;1072;-46
2022/06/06 01:14:22;;;;;;;48.00;24.88;;;;;;;14.20;100.00;100640.53;682259;28;1148;-46
2022/06/06 01:14:50;;;;;;;51.45;25.63;;;;;;;14.19;100.00;100632.66;682085;28;1207;-46
2022/06/06 01:15:15;;;;;;;52.78;25.58;;;;;;;14.16;100.00;100630.97;682563;28;1113;-46
2022/06/06 01:15:50;;;;;;;48.58;25.73;;;;;;;14.15;100.00;100626.63;681350;28;1128;-47
2022/06/06 01:16:32;;;;;;;49.63;25.77;;;;;;;14.21;100.00;100630.91;681801;28;1036;-46
2022/06/06 01:17:02;;;;;;;49.13;24.52;;;;;;;14.24;100.00;100633.44;680876;28;4720;-46
2022/06/06 01:17:54;;;;;;;47.97;24.10;;;;;;;14.22;100.00;100628.22;681336;28;1165;-45
2022/06/06 01:18:42;;;;;;;47.63;25.05;;;;;;;14.18;100.00;100629.19;682009;28;1021;-46
2022/06/06 01:19:44;;;;;;;52.30;25.60;;;;;;;14.15;100.00;100629.25;681444;28;1140;-46
2022/06/06 01:20:12;;;;;;;47.03;24.50;;;;;;;14.14;100.00;100636.25;679952;28;4916;-46
2022/06/06 01:21:25;;;;;;;48.45;24.48;;;;;;;14.15;100.00;100637.16;680836;28;1193;-45
2022/06/06 01:21:57;;;;;;;49.10;25.65;;;;;;;14.17;100.00;100639.75;679577;29;1286;-46
2022/06/06 01:22:23;;;;;;;53.05;26.45;;;;;;;14.15;100.00;100626.63;681821;28;4318;-46
2022/06/06 01:23:21;;;;;;;52.17;26.05;;;;;;;14.12;100.00;100637.19;681197;28;1423;-46
2022/06/06 01:23:48;;;;;;;54.25;26.30;;;;;;;14.11;100.00;100635.47;683518;28;1080;-47
2022/06/06 01:24:17;;;;;;;51.35;25.55;;;;;;;14.10;100.00;100631.09;682678;28;1216;-47
2022/06/06 01:24:56;;;;;;;52.85;25.38;;;;;;;14.10;100.00;100631.09;682348;28;1041;-46
2022/06/06 01:25:51;;;;;;;52.03;26.17;;;;;;;14.08;100.00;100628.50;682137;28;1072;-46
2022/06/06 01:26:43;;;;;;;54.15;25.33;;;;;;;14.20;100.00;100627.38;681719;28;4773;-47
2022/06/06 01:27:13;;;;;;;48.60;23.42;;;;;;;14.22;100.00;100628.22;680428;28;1275;-46
2022/06/06 01:27:49;;;;;;;44.63;24.20;;;;;;;14.22;100.00;100633.50;681814;28;1148;-46
2022/06/06 01:28:43;;;;;;;49.30;24.98;;;;;;;14.17;100.00;100631.84;685881;28;1264;-46
2022/06/06 01:29:36;;;;;;;58.00;26.25;;;;;;;14.19;100.00;100644.06;683718;28;1267;-46
2022/06/06 01:30:04;;;;;;;51.63;25.20;;;;;;;14.28;100.00;100632.50;682707;28;1253;-46
2022/06/06 01:30:41;;;;;;;44.90;23.73;;;;;;;14.26;100.00;100631.63;682255;28;1195;-46
2022/06/06 01:31:08;;;;;;;47.97;24.55;;;;;;;14.23;100.00;100632.59;682556;28;1136;-46
2022/06/06 01:32:03;;;;;;;49.78;25.05;;;;;;;14.18;100.00;100631.81;682930;28;4452;-46
2022/06/06 01:32:24;;;;;;;49.13;25.25;;;;;;;14.23;100.00;100632.59;685450;28;1559;-46
2022/06/06 01:32:52;;;;;;;46.10;25.00;;;;;;;14.22;100.00;100633.50;682718;28;1243;-49
2022/06/06 01:33:14;;;;;;;45.92;24.80;;;;;;;14.21;100.00;100637.00;682080;28;2189;-47
2022/06/06 01:33:56;;;;;;;47.45;24.95;;;;;;;14.27;100.00;100631.63;682371;28;1423;-45
2022/06/06 01:34:38;;;;;;;50.45;25.70;;;;;;;14.29;100.00;100632.47;681796;28;1053;-46
2022/06/06 01:34:59;;;;;;;51.40;24.70;;;;;;;14.26;100.00;100635.16;683957;28;4926;-47
2022/06/06 01:35:30;;;;;;;51.80;25.47;;;;;;;14.25;100.00;100628.16;682297;28;1029;-46
2022/06/06 01:35:50;;;;;;;54.42;25.75;;;;;;;14.22;100.00;100637.84;680901;28;1216;-47
2022/06/06 01:36:11;;;;;;;54.42;26.75;;;;;;;14.21;100.00;100634.38;683175;28;1149;-46
2022/06/06 01:36:34;;;;;;;49.63;25.77;;;;;;;14.26;100.00;100629.00;682909;28;1926;-46
2022/06/06 01:36:56;;;;;;;45.38;24.85;;;;;;;14.25;100.00;100629.94;682752;28;1180;-46
2022/06/06 01:37:34;;;;;;;48.03;24.75;;;;;;;14.24;100.00;100629.06;683666;28;1092;-46
2022/06/06 01:37:55;;;;;;;50.03;25.77;;;;;;;14.28;100.00;100627.22;680068;28;4981;-47
2022/06/06 01:38:20;;;;;;;48.67;23.88;;;;;;;14.26;100.00;100624.66;679031;28;1165;-47
2022/06/06 01:38:40;;;;;;;48.17;24.42;;;;;;;14.26;100.00;100621.13;679514;28;1015;-46
2022/06/06 01:39:05;;;;;;;48.80;24.83;;;;;;;14.28;100.00;100624.59;679338;29;1109;-45
2022/06/06 01:39:27;;;;;;;46.13;24.20;;;;;;;14.27;100.00;100621.13;679113;29;1138;-45
2022/06/06 01:39:48;;;;;;;43.50;23.58;;;;;;;14.26;100.00;100624.66;680000;28;914;-46
2022/06/06 01:40:14;;;;;;;43.67;23.65;;;;;;;14.28;100.00;100624.59;679643;29;1287;-45
2022/06/06 01:40:43;;;;;;;48.53;23.23;;;;;;;14.24;100.00;100626.41;681269;28;4278;-47
2022/06/06 01:41:09;;;;;;;44.90;23.25;;;;;;;14.19;100.00;100624.78;678938;29;1117;-46
2022/06/06 01:41:57;;;;;;;44.75;23.08;;;;;;;14.21;100.00;100623.84;683063;28;1274;-45
2022/06/06 01:42:25;;;;;;;47.03;24.15;;;;;;;14.25;100.00;100625.53;683410;28;916;-45
2022/06/06 01:43:00;;;;;;;45.55;23.77;;;;;;;14.35;100.00;100618.31;683209;28;942;-46
2022/06/06 01:43:28;;;;;;;42.35;23.15;;;;;;;14.36;100.00;100624.44;681820;28;4527;-46
2022/06/06 01:43:57;;;;;;;42.72;22.58;;;;;;;14.35;100.00;100622.72;679940;28;1232;-46
2022/06/06 01:44:28;;;;;;;43.95;22.55;;;;;;;14.38;100.00;100628.75;680686;29;1029;-46
2022/06/06 01:45:16;;;;;;;39.05;21.77;;;;;;;14.33;100.00;100624.50;679859;28;1235;-49
2022/06/06 01:45:50;;;;;;;44.63;22.98;;;;;;;14.35;100.00;100627.97;680364;28;1058;-45
2022/06/06 01:46:19;;;;;;;40.88;21.90;;;;;;;14.26;100.00;100616.75;682832;28;1445;-45
2022/06/06 01:46:39;;;;;;;43.60;21.42;;;;;;;14.21;100.00;100621.22;682240;28;4912;-47
2022/06/06 01:47:03;;;;;;;40.27;21.30;;;;;;;14.23;100.00;100619.44;681627;28;1226;-45
2022/06/06 01:47:29;;;;;;;34.22;18.30;;;;;;;14.28;100.00;100619.34;681124;28;1107;-45
2022/06/06 01:47:52;;;;;;;42.47;21.20;;;;;;;14.34;100.00;100621.84;683374;28;1223;-47
2022/06/06 01:48:17;;;;;;;42.15;21.38;;;;;;;14.36;100.00;100627.06;684753;28;1243;-46
2022/06/06 01:48:41;;;;;;;42.72;21.83;;;;;;;14.37;100.00;100620.91;682844;28;1121;-45
2022/06/06 01:49:05;;;;;;;38.50;21.05;;;;;;;14.41;100.00;100622.56;681031;28;1419;-46
2022/06/06 01:49:26;;;;;;;43.55;21.85;;;;;;;14.48;100.00;100621.53;681496;28;4470;-46
2022/06/06 01:49:47;;;;;;;41.13;21.50;;;;;;;14.47;100.00;100622.47;682673;28;1126;-45
2022/06/06 01:50:08;;;;;;;37.60;20.10;;;;;;;14.43;100.00;100623.44;682727;28;1167;-45
2022/06/06 01:50:30;;;;;;;37.50;20.08;;;;;;;14.41;100.00;100622.56;681952;28;3701;-46
2022/06/06 01:50:51;;;;;;;38.22;19.63;;;;;;;14.46;100.00;100618.09;684232;28;1117;-46
2022/06/06 01:51:16;;;;;;;35.28;18.90;;;;;;;14.44;100.00;100627.75;682758;28;1326;-46
2022/06/06 01:51:36;;;;;;;35.42;20.33;;;;;;;14.39;100.00;100625.25;684703;28;1175;-45
2022/06/06 01:52:12;;;;;;;35.60;20.43;;;;;;;14.39;100.00;100624.38;685789;28;1028;-45
2022/06/06 01:52:54;;;;;;;36.05;19.45;;;;;;;14.46;100.00;100623.34;682413;28;4471;-45
2022/06/06 01:53:18;;;;;;;34.05;19.55;;;;;;;14.39;100.00;100624.38;684834;28;1165;-48
2022/06/06 01:53:40;;;;;;;34.47;19.80;;;;;;;14.37;100.00;100628.78;681953;28;1571;-47
2022/06/06 01:54:00;;;;;;;34.58;20.15;;;;;;;14.41;100.00;100627.84;681872;28;1112;-47
2022/06/06 01:54:21;;;;;;;33.97;19.17;;;;;;;14.39;100.00;100619.13;682465;28;4769;-46
2022/06/06 01:54:43;;;;;;;34.70;18.83;;;;;;;14.41;100.00;100619.94;680848;28;1137;-45
2022/06/06 01:55:04;;;;;;;34.45;18.52;;;;;;;14.47;100.00;100619.81;682392;28;1191;-47
2022/06/06 01:55:26;;;;;;;34.78;19.55;;;;;;;14.45;100.00;100621.59;681795;28;4534;-47
2022/06/06 01:55:49;;;;;;;32.78;18.85;;;;;;;14.43;100.00;100621.66;681853;28;1061;-45
2022/06/06 01:56:21;;;;;;;35.50;19.60;;;;;;;14.51;100.00;100618.88;683020;28;1317;-45
2022/06/06 01:56:41;;;;;;;35.47;19.35;;;;;;;14.47;100.00;100618.06;682285;28;1911;-46
2022/06/06 01:57:05;;;;;;;35.80;18.42;;;;;;;14.49;100.00;100618.00;682727;28;1081;-45
2022/06/06 01:57:25;;;;;;;31.40;18.23;;;;;;;14.52;100.00;100620.56;682310;28;1116;-46
2022/06/06 01:57:47;;;;;;;33.55;18.52;;;;;;;14.55;100.00;100609.13;682403;28;1262;-46
2022/06/06 01:58:17;;;;;;;32.67;19.05;;;;;;;14.59;100.00;100610.78;682814;28;1092;-48
2022/06/06 01:58:37;;;;;;;34.78;18.70;;;;;;;14.56;100.00;100605.59;681427;28;4734;-45
2022/06/06 01:58:58;;;;;;;32.73;18.63;;;;;;;14.57;100.00;100613.47;683779;28;1135;-45
2022/06/06 01:59:18;;;;;;;34.33;18.17;;;;;;;14.52;100.00;100611.81;682349;28;1094;-46